sensor_id;sensor_type;location;lat;lon;timestamp;temperature;humidity
44117;DHT22;29781;49.480;8.512;2022-12-07T00:01:31;5.60;99.90
44117;DHT22;29781;49.480;8.512;2022-12-07T00:03:58;5.60;99.90
44117;DHT22;29781;49.480;8.512;2022-12-07T00:06:30;5.60;99.90
44117;DHT22;29781;49.480;8.512;2022-12-07T00:08:55;5.70;99.90
44117;DHT22;29781;49.480;8.512;2022-12-07T00:11:21;5.30;99.90
44117;DHT22;29781;49.480;8.512;2022-12-07T00:13:50;5.00;99.90
44117;DHT22;29781;49.480;8.512;2022-12-07T00:16:17;4.80;99.90
44117;DHT22;29781;49.480;8.512;2022-12-07T00:18:43;4.90;99.90
44117;DHT22;29781;49.480;8.512;2022-12-07T00:21:10;4.90;99.90
44117;DHT22;29781;49.480;8.512;2022-12-07T00:23:36;4.80;99.90
44117;DHT22;29781;49.480;8.512;2022-12-07T00:26:09;4.80;99.90
44117;DHT22;29781;49.480;8.512;2022-12-07T00:28:34;4.90;99.90
44117;DHT22;29781;49.480;8.512;2022-12-07T00:31:01;5.10;99.90
44117;DHT22;29781;49.480;8.512;2022-12-07T00:33:26;5.30;99.90
44117;DHT22;29781;49.480;8.512;2022-12-07T00:35:57;5.40;99.90
44117;DHT22;29781;49.480;8.512;2022-12-07T00:38:23;5.50;99.90
44117;DHT22;29781;49.480;8.512;2022-12-07T00:40:58;5.50;99.90
44117;DHT22;29781;49.480;8.512;2022-12-07T00:43:25;5.30;99.90
44117;DHT22;29781;49.480;8.512;2022-12-07T00:45:50;4.70;99.90
44117;DHT22;29781;49.480;8.512;2022-12-07T00:48:16;4.60;99.90
44117;DHT22;29781;49.480;8.512;2022-12-07T00:50:41;4.80;99.90
44117;DHT22;29781;49.480;8.512;2022-12-07T00:53:07;5.00;99.90
44117;DHT22;29781;49.480;8.512;2022-12-07T00:55:33;5.10;99.90
44117;DHT22;29781;49.480;8.512;2022-12-07T00:57:58;5.20;99.90
44117;DHT22;29781;49.480;8.512;2022-12-07T01:00:24;5.30;99.90
44117;DHT22;29781;49.480;8.512;2022-12-07T01:02:49;5.40;99.90
44117;DHT22;29781;49.480;8.512;2022-12-07T01:05:15;5.50;99.90
44117;DHT22;29781;49.480;8.512;2022-12-07T01:07:40;5.50;99.90
44117;DHT22;29781;49.480;8.512;2022-12-07T01:10:06;5.40;99.90
44117;DHT22;29781;49.480;8.512;2022-12-07T01:12:32;5.40;99.90
44117;DHT22;29781;49.480;8.512;2022-12-07T01:14:57;5.50;99.90
44117;DHT22;29781;49.480;8.512;2022-12-07T01:17:23;5.40;99.90
44117;DHT22;29781;49.480;8.512;2022-12-07T01:19:48;5.50;99.90
44117;DHT22;29781;49.480;8.512;2022-12-07T01:22:14;5.50;99.90
44117;DHT22;29781;49.480;8.512;2022-12-07T01:24:39;5.50;99.90
44117;DHT22;29781;49.480;8.512;2022-12-07T01:27:05;5.50;99.90
44117;DHT22;29781;49.480;8.512;2022-12-07T01:29:30;5.40;99.90
44117;DHT22;29781;49.480;8.512;2022-12-07T01:31:56;5.40;99.90
44117;DHT22;29781;49.480;8.512;2022-12-07T01:34:21;5.40;99.90
44117;DHT22;29781;49.480;8.512;2022-12-07T01:36:47;5.40;99.90
44117;DHT22;29781;49.480;8.512;2022-12-07T01:39:12;5.20;99.90
44117;DHT22;29781;49.480;8.512;2022-12-07T01:41:39;5.20;99.90
44117;DHT22;29781;49.480;8.512;2022-12-07T01:44:16;5.10;99.90
44117;DHT22;29781;49.480;8.512;2022-12-07T01:46:51;5.10;99.90
44117;DHT22;29781;49.480;8.512;2022-12-07T01:49:20;5.10;99.90
44117;DHT22;29781;49.480;8.512;2022-12-07T01:51:47;5.10;99.90
44117;DHT22;29781;49.480;8.512;2022-12-07T01:54:14;5.10;99.90
44117;DHT22;29781;49.480;8.512;2022-12-07T01:56:42;5.10;99.90
44117;DHT22;29781;49.480;8.512;2022-12-07T01:59:08;5.20;99.90
44117;DHT22;29781;49.480;8.512;2022-12-07T02:01:33;5.30;99.90
44117;DHT22;29781;49.480;8.512;2022-12-07T02:03:59;5.30;99.90
44117;DHT22;29781;49.480;8.512;2022-12-07T02:06:24;5.30;99.90
44117;DHT22;29781;49.480;8.512;2022-12-07T02:08:51;5.40;99.90
44117;DHT22;29781;49.480;8.512;2022-12-07T02:11:16;5.30;99.90
44117;DHT22;29781;49.480;8.512;2022-12-07T02:13:42;5.30;99.90
44117;DHT22;29781;49.480;8.512;2022-12-07T02:16:14;5.30;99.90
44117;DHT22;29781;49.480;8.512;2022-12-07T02:23:45;5.20;99.90
44117;DHT22;29781;49.480;8.512;2022-12-07T02:31:34;5.30;99.90
44117;DHT22;29781;49.480;8.512;2022-12-07T02:34:04;5.30;99.90
44117;DHT22;29781;49.480;8.512;2022-12-07T02:36:31;5.20;99.90
44117;DHT22;29781;49.480;8.512;2022-12-07T02:39:08;5.10;99.90
44117;DHT22;29781;49.480;8.512;2022-12-07T02:41:58;5.00;99.90
44117;DHT22;29781;49.480;8.512;2022-12-07T02:44:23;4.90;99.90
44117;DHT22;29781;49.480;8.512;2022-12-07T02:46:53;4.80;99.90
44117;DHT22;29781;49.480;8.512;2022-12-07T02:49:21;4.80;99.90
44117;DHT22;29781;49.480;8.512;2022-12-07T02:51:48;4.80;99.90
44117;DHT22;29781;49.480;8.512;2022-12-07T02:54:14;4.90;99.90
44117;DHT22;29781;49.480;8.512;2022-12-07T03:04:31;5.10;99.90
44117;DHT22;29781;49.480;8.512;2022-12-07T03:12:14;5.20;99.90
44117;DHT22;29781;49.480;8.512;2022-12-07T03:14:45;5.20;99.90
44117;DHT22;29781;49.480;8.512;2022-12-07T03:17:13;5.20;99.90
44117;DHT22;29781;49.480;8.512;2022-12-07T03:19:41;5.10;99.90
44117;DHT22;29781;49.480;8.512;2022-12-07T03:22:09;5.10;99.90
44117;DHT22;29781;49.480;8.512;2022-12-07T03:24:36;5.10;99.90
44117;DHT22;29781;49.480;8.512;2022-12-07T03:27:23;5.10;99.90
44117;DHT22;29781;49.480;8.512;2022-12-07T03:29:52;5.10;99.90
44117;DHT22;29781;49.480;8.512;2022-12-07T03:32:26;5.10;99.90
44117;DHT22;29781;49.480;8.512;2022-12-07T03:37:26;4.90;99.90
44117;DHT22;29781;49.480;8.512;2022-12-07T03:42:24;4.80;99.90
44117;DHT22;29781;49.480;8.512;2022-12-07T03:44:50;4.90;99.90
44117;DHT22;29781;49.480;8.512;2022-12-07T03:47:17;4.90;99.90
44117;DHT22;29781;49.480;8.512;2022-12-07T03:49:48;4.80;99.90
44117;DHT22;29781;49.480;8.512;2022-12-07T03:54:59;4.90;99.90
44117;DHT22;29781;49.480;8.512;2022-12-07T03:57:26;4.90;99.90
44117;DHT22;29781;49.480;8.512;2022-12-07T03:59:53;4.90;99.90
44117;DHT22;29781;49.480;8.512;2022-12-07T04:02:19;4.80;99.90
44117;DHT22;29781;49.480;8.512;2022-12-07T04:04:45;4.90;99.90
44117;DHT22;29781;49.480;8.512;2022-12-07T04:07:10;4.90;99.90
44117;DHT22;29781;49.480;8.512;2022-12-07T04:09:36;5.00;99.90
44117;DHT22;29781;49.480;8.512;2022-12-07T04:12:01;5.00;99.90
44117;DHT22;29781;49.480;8.512;2022-12-07T04:14:27;4.90;99.90
44117;DHT22;29781;49.480;8.512;2022-12-07T04:16:53;4.90;99.90
44117;DHT22;29781;49.480;8.512;2022-12-07T04:19:25;4.90;99.90
44117;DHT22;29781;49.480;8.512;2022-12-07T04:21:51;4.90;99.90
44117;DHT22;29781;49.480;8.512;2022-12-07T04:24:17;5.00;99.90
44117;DHT22;29781;49.480;8.512;2022-12-07T04:26:43;4.90;99.90
44117;DHT22;29781;49.480;8.512;2022-12-07T04:29:09;4.90;99.90
44117;DHT22;29781;49.480;8.512;2022-12-07T04:31:35;4.90;99.90
44117;DHT22;29781;49.480;8.512;2022-12-07T04:34:00;4.80;99.90
44117;DHT22;29781;49.480;8.512;2022-12-07T04:36:26;4.90;99.90
44117;DHT22;29781;49.480;8.512;2022-12-07T04:38:53;4.80;99.90
44117;DHT22;29781;49.480;8.512;2022-12-07T04:41:18;4.80;99.90
44117;DHT22;29781;49.480;8.512;2022-12-07T04:43:44;4.90;99.90
44117;DHT22;29781;49.480;8.512;2022-12-07T04:46:09;5.00;99.90
44117;DHT22;29781;49.480;8.512;2022-12-07T04:48:35;5.00;99.90
44117;DHT22;29781;49.480;8.512;2022-12-07T04:51:01;4.90;99.90
44117;DHT22;29781;49.480;8.512;2022-12-07T04:53:27;4.80;99.90
44117;DHT22;29781;49.480;8.512;2022-12-07T04:55:52;4.70;99.90
44117;DHT22;29781;49.480;8.512;2022-12-07T04:58:18;4.70;99.90
44117;DHT22;29781;49.480;8.512;2022-12-07T05:00:43;4.60;99.90
44117;DHT22;29781;49.480;8.512;2022-12-07T05:03:09;4.60;99.90
44117;DHT22;29781;49.480;8.512;2022-12-07T05:05:34;4.60;99.90
44117;DHT22;29781;49.480;8.512;2022-12-07T05:08:00;4.70;99.90
44117;DHT22;29781;49.480;8.512;2022-12-07T05:10:25;4.60;99.90
44117;DHT22;29781;49.480;8.512;2022-12-07T05:12:51;4.70;99.90
44117;DHT22;29781;49.480;8.512;2022-12-07T05:15:16;4.60;99.90
44117;DHT22;29781;49.480;8.512;2022-12-07T05:17:42;4.60;99.90
44117;DHT22;29781;49.480;8.512;2022-12-07T05:20:08;4.60;99.90
44117;DHT22;29781;49.480;8.512;2022-12-07T05:22:34;4.60;99.90
44117;DHT22;29781;49.480;8.512;2022-12-07T05:24:59;4.70;99.90
44117;DHT22;29781;49.480;8.512;2022-12-07T05:27:25;4.70;99.90
44117;DHT22;29781;49.480;8.512;2022-12-07T05:29:50;4.70;99.90
44117;DHT22;29781;49.480;8.512;2022-12-07T05:32:16;4.70;99.90
44117;DHT22;29781;49.480;8.512;2022-12-07T05:34:42;4.70;99.90
44117;DHT22;29781;49.480;8.512;2022-12-07T05:37:07;4.70;99.90
44117;DHT22;29781;49.480;8.512;2022-12-07T05:39:33;4.80;99.90
44117;DHT22;29781;49.480;8.512;2022-12-07T05:41:59;4.70;99.90
44117;DHT22;29781;49.480;8.512;2022-12-07T05:44:40;4.80;99.90
44117;DHT22;29781;49.480;8.512;2022-12-07T05:47:05;4.70;99.90
44117;DHT22;29781;49.480;8.512;2022-12-07T05:49:31;4.70;99.90
44117;DHT22;29781;49.480;8.512;2022-12-07T05:51:57;4.70;99.90
44117;DHT22;29781;49.480;8.512;2022-12-07T05:54:22;4.70;99.90
44117;DHT22;29781;49.480;8.512;2022-12-07T05:56:48;4.70;99.90
44117;DHT22;29781;49.480;8.512;2022-12-07T05:59:13;4.80;99.90
44117;DHT22;29781;49.480;8.512;2022-12-07T06:01:49;4.80;99.90
44117;DHT22;29781;49.480;8.512;2022-12-07T06:04:15;4.80;99.90
44117;DHT22;29781;49.480;8.512;2022-12-07T06:06:40;4.80;99.90
44117;DHT22;29781;49.480;8.512;2022-12-07T06:09:06;4.80;99.90
44117;DHT22;29781;49.480;8.512;2022-12-07T06:11:31;4.80;99.90
44117;DHT22;29781;49.480;8.512;2022-12-07T06:14:16;4.80;99.90
44117;DHT22;29781;49.480;8.512;2022-12-07T06:16:41;4.70;99.90
44117;DHT22;29781;49.480;8.512;2022-12-07T06:19:07;4.70;99.90
44117;DHT22;29781;49.480;8.512;2022-12-07T06:21:32;4.80;99.90
44117;DHT22;29781;49.480;8.512;2022-12-07T06:23:58;4.70;99.90
44117;DHT22;29781;49.480;8.512;2022-12-07T06:26:23;4.70;99.90
44117;DHT22;29781;49.480;8.512;2022-12-07T06:28:49;4.70;99.90
44117;DHT22;29781;49.480;8.512;2022-12-07T06:31:14;4.60;99.90
44117;DHT22;29781;49.480;8.512;2022-12-07T06:33:40;4.60;99.90
44117;DHT22;29781;49.480;8.512;2022-12-07T06:36:06;4.70;99.90
44117;DHT22;29781;49.480;8.512;2022-12-07T06:38:32;4.80;99.90
44117;DHT22;29781;49.480;8.512;2022-12-07T06:40:57;4.80;99.90
44117;DHT22;29781;49.480;8.512;2022-12-07T06:43:23;4.80;99.90
44117;DHT22;29781;49.480;8.512;2022-12-07T06:45:48;4.70;99.90
44117;DHT22;29781;49.480;8.512;2022-12-07T06:48:14;4.70;99.90
44117;DHT22;29781;49.480;8.512;2022-12-07T06:50:39;4.60;99.90
44117;DHT22;29781;49.480;8.512;2022-12-07T06:53:05;4.60;99.90
44117;DHT22;29781;49.480;8.512;2022-12-07T06:55:30;4.60;99.90
44117;DHT22;29781;49.480;8.512;2022-12-07T06:57:56;4.70;99.90
44117;DHT22;29781;49.480;8.512;2022-12-07T07:00:22;4.70;99.90
44117;DHT22;29781;49.480;8.512;2022-12-07T07:02:47;4.70;99.90
44117;DHT22;29781;49.480;8.512;2022-12-07T07:05:13;4.60;99.90
44117;DHT22;29781;49.480;8.512;2022-12-07T07:07:38;4.60;99.90
44117;DHT22;29781;49.480;8.512;2022-12-07T07:10:04;4.60;99.90
44117;DHT22;29781;49.480;8.512;2022-12-07T07:12:29;4.60;99.90
44117;DHT22;29781;49.480;8.512;2022-12-07T07:14:55;4.60;99.90
44117;DHT22;29781;49.480;8.512;2022-12-07T07:17:21;4.70;99.90
44117;DHT22;29781;49.480;8.512;2022-12-07T07:19:46;4.60;99.90
44117;DHT22;29781;49.480;8.512;2022-12-07T07:22:11;4.60;99.90
44117;DHT22;29781;49.480;8.512;2022-12-07T07:24:37;4.60;99.90
44117;DHT22;29781;49.480;8.512;2022-12-07T07:27:02;4.50;99.90
44117;DHT22;29781;49.480;8.512;2022-12-07T07:29:28;4.50;99.90
44117;DHT22;29781;49.480;8.512;2022-12-07T07:31:54;4.60;99.90
44117;DHT22;29781;49.480;8.512;2022-12-07T07:34:19;4.60;99.90
44117;DHT22;29781;49.480;8.512;2022-12-07T07:36:44;4.60;99.90
44117;DHT22;29781;49.480;8.512;2022-12-07T07:39:10;4.60;99.90
44117;DHT22;29781;49.480;8.512;2022-12-07T07:41:38;4.60;99.90
44117;DHT22;29781;49.480;8.512;2022-12-07T07:44:03;4.60;99.90
44117;DHT22;29781;49.480;8.512;2022-12-07T07:46:29;4.70;99.90
44117;DHT22;29781;49.480;8.512;2022-12-07T07:48:54;4.70;99.90
44117;DHT22;29781;49.480;8.512;2022-12-07T07:51:20;4.70;99.90
44117;DHT22;29781;49.480;8.512;2022-12-07T07:53:45;4.80;99.90
44117;DHT22;29781;49.480;8.512;2022-12-07T07:56:11;4.80;99.90
44117;DHT22;29781;49.480;8.512;2022-12-07T07:58:37;4.90;99.90
44117;DHT22;29781;49.480;8.512;2022-12-07T08:01:05;4.90;99.90
44117;DHT22;29781;49.480;8.512;2022-12-07T08:03:30;4.90;99.90
44117;DHT22;29781;49.480;8.512;2022-12-07T08:05:56;5.00;99.90
44117;DHT22;29781;49.480;8.512;2022-12-07T08:08:22;5.00;99.90
44117;DHT22;29781;49.480;8.512;2022-12-07T08:10:47;5.10;99.90
44117;DHT22;29781;49.480;8.512;2022-12-07T08:13:15;5.10;99.90
44117;DHT22;29781;49.480;8.512;2022-12-07T08:15:41;5.10;99.90
44117;DHT22;29781;49.480;8.512;2022-12-07T08:18:07;5.10;99.90
44117;DHT22;29781;49.480;8.512;2022-12-07T08:20:33;5.00;99.90
44117;DHT22;29781;49.480;8.512;2022-12-07T08:22:59;4.90;99.90
44117;DHT22;29781;49.480;8.512;2022-12-07T08:25:25;4.90;99.90
44117;DHT22;29781;49.480;8.512;2022-12-07T08:27:50;4.80;99.90
44117;DHT22;29781;49.480;8.512;2022-12-07T08:30:16;4.80;99.90
44117;DHT22;29781;49.480;8.512;2022-12-07T08:32:43;4.80;99.90
44117;DHT22;29781;49.480;8.512;2022-12-07T08:35:09;4.80;99.90
44117;DHT22;29781;49.480;8.512;2022-12-07T08:37:35;4.80;99.90
44117;DHT22;29781;49.480;8.512;2022-12-07T08:40:00;4.80;99.90
44117;DHT22;29781;49.480;8.512;2022-12-07T08:42:26;4.80;99.90
44117;DHT22;29781;49.480;8.512;2022-12-07T08:44:57;4.80;99.90
44117;DHT22;29781;49.480;8.512;2022-12-07T08:47:23;4.90;99.90
44117;DHT22;29781;49.480;8.512;2022-12-07T08:49:49;5.00;99.90
44117;DHT22;29781;49.480;8.512;2022-12-07T08:52:15;5.00;99.90
44117;DHT22;29781;49.480;8.512;2022-12-07T08:54:41;5.00;99.90
44117;DHT22;29781;49.480;8.512;2022-12-07T08:57:07;5.00;99.90
44117;DHT22;29781;49.480;8.512;2022-12-07T08:59:33;5.00;99.90
44117;DHT22;29781;49.480;8.512;2022-12-07T09:01:59;5.00;99.90
44117;DHT22;29781;49.480;8.512;2022-12-07T09:04:25;5.00;99.90
44117;DHT22;29781;49.480;8.512;2022-12-07T09:06:51;5.10;99.90
44117;DHT22;29781;49.480;8.512;2022-12-07T09:09:17;5.10;99.90
44117;DHT22;29781;49.480;8.512;2022-12-07T09:11:42;5.10;99.90
44117;DHT22;29781;49.480;8.512;2022-12-07T09:14:10;5.20;99.90
44117;DHT22;29781;49.480;8.512;2022-12-07T09:16:36;5.20;99.90
44117;DHT22;29781;49.480;8.512;2022-12-07T09:19:01;5.20;99.90
44117;DHT22;29781;49.480;8.512;2022-12-07T09:21:27;5.30;99.90
44117;DHT22;29781;49.480;8.512;2022-12-07T09:23:52;5.40;99.90
44117;DHT22;29781;49.480;8.512;2022-12-07T09:26:18;5.40;99.90
44117;DHT22;29781;49.480;8.512;2022-12-07T09:28:43;5.40;99.90
44117;DHT22;29781;49.480;8.512;2022-12-07T09:31:09;5.40;99.90
44117;DHT22;29781;49.480;8.512;2022-12-07T09:33:34;5.50;99.90
44117;DHT22;29781;49.480;8.512;2022-12-07T09:36:00;5.50;99.90
44117;DHT22;29781;49.480;8.512;2022-12-07T09:38:25;5.50;99.90
44117;DHT22;29781;49.480;8.512;2022-12-07T09:40:51;5.50;99.90
44117;DHT22;29781;49.480;8.512;2022-12-07T09:43:18;5.50;99.90
44117;DHT22;29781;49.480;8.512;2022-12-07T09:45:44;5.50;99.90
44117;DHT22;29781;49.480;8.512;2022-12-07T09:48:14;5.50;99.90
44117;DHT22;29781;49.480;8.512;2022-12-07T09:50:41;5.50;99.90
44117;DHT22;29781;49.480;8.512;2022-12-07T09:53:08;5.50;99.90
44117;DHT22;29781;49.480;8.512;2022-12-07T09:55:35;5.50;99.90
44117;DHT22;29781;49.480;8.512;2022-12-07T09:58:01;5.50;99.90
44117;DHT22;29781;49.480;8.512;2022-12-07T10:00:27;5.50;99.90
44117;DHT22;29781;49.480;8.512;2022-12-07T10:02:55;5.60;99.90
44117;DHT22;29781;49.480;8.512;2022-12-07T10:05:22;5.70;99.90
44117;DHT22;29781;49.480;8.512;2022-12-07T10:07:49;5.70;99.90
44117;DHT22;29781;49.480;8.512;2022-12-07T10:10:17;5.80;99.90
44117;DHT22;29781;49.480;8.512;2022-12-07T10:13:06;5.70;99.90
44117;DHT22;29781;49.480;8.512;2022-12-07T10:23:36;5.90;99.90
44117;DHT22;29781;49.480;8.512;2022-12-07T10:28:47;6.00;99.90
44117;DHT22;29781;49.480;8.512;2022-12-07T10:31:15;6.10;99.90
44117;DHT22;29781;49.480;8.512;2022-12-07T10:33:49;6.10;99.90
44117;DHT22;29781;49.480;8.512;2022-12-07T10:36:33;5.90;99.90
44117;DHT22;29781;49.480;8.512;2022-12-07T10:41:26;5.90;99.90
44117;DHT22;29781;49.480;8.512;2022-12-07T10:43:53;6.00;99.90
44117;DHT22;29781;49.480;8.512;2022-12-07T10:46:23;6.00;99.90
44117;DHT22;29781;49.480;8.512;2022-12-07T10:54:10;5.90;99.90
44117;DHT22;29781;49.480;8.512;2022-12-07T10:56:42;5.90;99.90
44117;DHT22;29781;49.480;8.512;2022-12-07T11:04:16;5.90;99.90
44117;DHT22;29781;49.480;8.512;2022-12-07T11:07:02;5.80;99.90
44117;DHT22;29781;49.480;8.512;2022-12-07T11:20:15;6.00;99.90
44117;DHT22;29781;49.480;8.512;2022-12-07T11:22:54;6.00;99.90
44117;DHT22;29781;49.480;8.512;2022-12-07T11:25:26;6.00;99.90
44117;DHT22;29781;49.480;8.512;2022-12-07T11:28:02;6.00;99.90
44117;DHT22;29781;49.480;8.512;2022-12-07T11:35:47;6.10;99.90
44117;DHT22;29781;49.480;8.512;2022-12-07T11:38:18;6.20;99.90
44117;DHT22;29781;49.480;8.512;2022-12-07T11:40:46;6.20;99.90
44117;DHT22;29781;49.480;8.512;2022-12-07T11:43:15;6.20;99.90
44117;DHT22;29781;49.480;8.512;2022-12-07T11:45:44;6.30;99.90
44117;DHT22;29781;49.480;8.512;2022-12-07T11:48:13;6.30;99.90
44117;DHT22;29781;49.480;8.512;2022-12-07T11:50:45;6.20;99.90
44117;DHT22;29781;49.480;8.512;2022-12-07T11:53:17;6.20;99.90
44117;DHT22;29781;49.480;8.512;2022-12-07T12:00:55;6.40;99.90
44117;DHT22;29781;49.480;8.512;2022-12-07T12:03:31;6.60;99.90
44117;DHT22;29781;49.480;8.512;2022-12-07T12:05:58;7.10;99.90
44117;DHT22;29781;49.480;8.512;2022-12-07T12:08:27;8.00;99.90
44117;DHT22;29781;49.480;8.512;2022-12-07T12:11:00;8.10;99.90
44117;DHT22;29781;49.480;8.512;2022-12-07T12:18:26;8.50;99.90
44117;DHT22;29781;49.480;8.512;2022-12-07T12:21:00;8.50;99.90
44117;DHT22;29781;49.480;8.512;2022-12-07T12:23:34;7.80;99.90
44117;DHT22;29781;49.480;8.512;2022-12-07T12:26:01;7.60;99.90
44117;DHT22;29781;49.480;8.512;2022-12-07T12:31:14;7.30;99.90
44117;DHT22;29781;49.480;8.512;2022-12-07T12:33:53;7.20;99.90
44117;DHT22;29781;49.480;8.512;2022-12-07T12:36:21;7.20;99.90
44117;DHT22;29781;49.480;8.512;2022-12-07T12:44:01;6.60;99.90
44117;DHT22;29781;49.480;8.512;2022-12-07T12:59:31;6.60;99.90
44117;DHT22;29781;49.480;8.512;2022-12-07T13:07:13;6.60;99.90
44117;DHT22;29781;49.480;8.512;2022-12-07T13:09:58;6.50;99.90
44117;DHT22;29781;49.480;8.512;2022-12-07T13:12:24;6.60;99.90
44117;DHT22;29781;49.480;8.512;2022-12-07T13:14:56;6.50;99.90
44117;DHT22;29781;49.480;8.512;2022-12-07T13:19:57;6.70;99.90
44117;DHT22;29781;49.480;8.512;2022-12-07T13:27:26;6.30;99.90
44117;DHT22;29781;49.480;8.512;2022-12-07T13:29:52;6.40;99.90
44117;DHT22;29781;49.480;8.512;2022-12-07T13:32:28;6.40;99.90
44117;DHT22;29781;49.480;8.512;2022-12-07T13:34:53;6.40;99.90
44117;DHT22;29781;49.480;8.512;2022-12-07T13:37:28;6.40;99.90
44117;DHT22;29781;49.480;8.512;2022-12-07T13:39:58;6.40;99.90
44117;DHT22;29781;49.480;8.512;2022-12-07T13:42:25;6.40;99.90
44117;DHT22;29781;49.480;8.512;2022-12-07T13:44:51;6.40;99.90
44117;DHT22;29781;49.480;8.512;2022-12-07T13:47:19;6.50;99.90
44117;DHT22;29781;49.480;8.512;2022-12-07T13:49:49;6.60;99.90
44117;DHT22;29781;49.480;8.512;2022-12-07T13:52:20;6.70;99.90
44117;DHT22;29781;49.480;8.512;2022-12-07T13:57:11;6.50;99.90
44117;DHT22;29781;49.480;8.512;2022-12-07T13:59:37;6.60;99.90
44117;DHT22;29781;49.480;8.512;2022-12-07T14:02:17;6.70;99.90
44117;DHT22;29781;49.480;8.512;2022-12-07T14:04:43;6.70;99.90
44117;DHT22;29781;49.480;8.512;2022-12-07T14:07:18;6.70;99.90
44117;DHT22;29781;49.480;8.512;2022-12-07T14:09:53;6.70;99.90
44117;DHT22;29781;49.480;8.512;2022-12-07T14:12:18;6.60;99.90
44117;DHT22;29781;49.480;8.512;2022-12-07T14:14:46;6.50;99.90
44117;DHT22;29781;49.480;8.512;2022-12-07T14:17:16;6.50;99.90
44117;DHT22;29781;49.480;8.512;2022-12-07T14:19:50;6.50;99.90
44117;DHT22;29781;49.480;8.512;2022-12-07T14:22:28;6.50;99.90
44117;DHT22;29781;49.480;8.512;2022-12-07T14:25:00;6.30;99.90
44117;DHT22;29781;49.480;8.512;2022-12-07T14:27:30;6.40;99.90
44117;DHT22;29781;49.480;8.512;2022-12-07T14:29:59;6.50;99.90
44117;DHT22;29781;49.480;8.512;2022-12-07T14:32:25;6.60;99.90
44117;DHT22;29781;49.480;8.512;2022-12-07T14:37:20;6.70;99.90
44117;DHT22;29781;49.480;8.512;2022-12-07T14:39:45;6.60;99.90
44117;DHT22;29781;49.480;8.512;2022-12-07T14:42:11;6.50;99.90
44117;DHT22;29781;49.480;8.512;2022-12-07T14:44:36;6.50;99.90
44117;DHT22;29781;49.480;8.512;2022-12-07T14:47:02;6.50;99.90
44117;DHT22;29781;49.480;8.512;2022-12-07T14:49:27;6.50;99.90
44117;DHT22;29781;49.480;8.512;2022-12-07T14:51:53;6.40;99.90
44117;DHT22;29781;49.480;8.512;2022-12-07T14:54:19;6.40;99.90
44117;DHT22;29781;49.480;8.512;2022-12-07T14:56:45;6.50;99.90
44117;DHT22;29781;49.480;8.512;2022-12-07T14:59:14;6.50;99.90
44117;DHT22;29781;49.480;8.512;2022-12-07T15:01:40;6.50;99.90
44117;DHT22;29781;49.480;8.512;2022-12-07T15:04:05;6.50;99.90
44117;DHT22;29781;49.480;8.512;2022-12-07T15:06:31;6.60;99.90
44117;DHT22;29781;49.480;8.512;2022-12-07T15:08:57;6.50;99.90
44117;DHT22;29781;49.480;8.512;2022-12-07T15:11:22;6.50;99.90
44117;DHT22;29781;49.480;8.512;2022-12-07T15:13:47;6.40;99.90
44117;DHT22;29781;49.480;8.512;2022-12-07T15:16:32;6.40;99.90
44117;DHT22;29781;49.480;8.512;2022-12-07T15:18:57;6.40;99.90
44117;DHT22;29781;49.480;8.512;2022-12-07T15:21:23;6.50;99.90
44117;DHT22;29781;49.480;8.512;2022-12-07T15:23:48;6.50;99.90
44117;DHT22;29781;49.480;8.512;2022-12-07T15:26:14;6.60;99.90
44117;DHT22;29781;49.480;8.512;2022-12-07T15:28:40;6.40;99.90
44117;DHT22;29781;49.480;8.512;2022-12-07T15:31:16;6.40;99.90
44117;DHT22;29781;49.480;8.512;2022-12-07T15:33:42;6.50;99.90
44117;DHT22;29781;49.480;8.512;2022-12-07T15:36:08;6.50;99.90
44117;DHT22;29781;49.480;8.512;2022-12-07T15:38:40;6.50;99.90
44117;DHT22;29781;49.480;8.512;2022-12-07T15:41:06;6.40;99.90
44117;DHT22;29781;49.480;8.512;2022-12-07T15:43:31;6.40;99.90
44117;DHT22;29781;49.480;8.512;2022-12-07T15:46:16;6.40;99.90
44117;DHT22;29781;49.480;8.512;2022-12-07T15:48:41;6.50;99.90
44117;DHT22;29781;49.480;8.512;2022-12-07T15:51:07;6.30;99.90
44117;DHT22;29781;49.480;8.512;2022-12-07T15:53:33;6.40;99.90
44117;DHT22;29781;49.480;8.512;2022-12-07T15:55:59;6.30;99.90
44117;DHT22;29781;49.480;8.512;2022-12-07T15:58:25;6.40;99.90
44117;DHT22;29781;49.480;8.512;2022-12-07T16:00:50;6.40;99.90
44117;DHT22;29781;49.480;8.512;2022-12-07T16:03:16;6.30;99.90
44117;DHT22;29781;49.480;8.512;2022-12-07T16:05:41;6.40;99.90
44117;DHT22;29781;49.480;8.512;2022-12-07T16:08:07;6.40;99.90
44117;DHT22;29781;49.480;8.512;2022-12-07T16:10:34;6.40;99.90
44117;DHT22;29781;49.480;8.512;2022-12-07T16:13:00;6.40;99.90
44117;DHT22;29781;49.480;8.512;2022-12-07T16:15:25;6.40;99.90
44117;DHT22;29781;49.480;8.512;2022-12-07T16:17:52;6.40;99.90
44117;DHT22;29781;49.480;8.512;2022-12-07T16:20:17;6.40;99.90
44117;DHT22;29781;49.480;8.512;2022-12-07T16:22:43;6.30;99.90
44117;DHT22;29781;49.480;8.512;2022-12-07T16:25:08;6.30;99.90
44117;DHT22;29781;49.480;8.512;2022-12-07T16:27:34;6.30;99.90
44117;DHT22;29781;49.480;8.512;2022-12-07T16:30:00;6.20;99.90
44117;DHT22;29781;49.480;8.512;2022-12-07T16:32:25;6.20;99.90
44117;DHT22;29781;49.480;8.512;2022-12-07T16:34:51;6.10;99.90
44117;DHT22;29781;49.480;8.512;2022-12-07T16:37:16;6.20;99.90
44117;DHT22;29781;49.480;8.512;2022-12-07T16:39:42;6.00;99.90
44117;DHT22;29781;49.480;8.512;2022-12-07T16:42:07;5.90;99.90
44117;DHT22;29781;49.480;8.512;2022-12-07T16:44:33;5.90;99.90
44117;DHT22;29781;49.480;8.512;2022-12-07T16:46:59;6.00;99.90
44117;DHT22;29781;49.480;8.512;2022-12-07T16:49:25;6.10;99.90
44117;DHT22;29781;49.480;8.512;2022-12-07T16:51:51;6.10;99.90
44117;DHT22;29781;49.480;8.512;2022-12-07T16:54:17;6.00;99.90
44117;DHT22;29781;49.480;8.512;2022-12-07T16:56:42;6.00;99.90
44117;DHT22;29781;49.480;8.512;2022-12-07T16:59:08;6.00;99.90
44117;DHT22;29781;49.480;8.512;2022-12-07T17:01:33;6.10;99.90
44117;DHT22;29781;49.480;8.512;2022-12-07T17:03:59;6.10;99.90
44117;DHT22;29781;49.480;8.512;2022-12-07T17:06:25;6.00;99.90
44117;DHT22;29781;49.480;8.512;2022-12-07T17:08:52;6.00;99.90
44117;DHT22;29781;49.480;8.512;2022-12-07T17:11:19;6.00;99.90
44117;DHT22;29781;49.480;8.512;2022-12-07T17:13:45;6.00;99.90
44117;DHT22;29781;49.480;8.512;2022-12-07T17:16:29;6.10;99.90
44117;DHT22;29781;49.480;8.512;2022-12-07T17:18:55;6.00;99.90
44117;DHT22;29781;49.480;8.512;2022-12-07T17:21:21;6.00;99.90
44117;DHT22;29781;49.480;8.512;2022-12-07T17:23:46;6.00;99.90
44117;DHT22;29781;49.480;8.512;2022-12-07T17:26:13;6.00;99.90
44117;DHT22;29781;49.480;8.512;2022-12-07T17:28:39;6.00;99.90
44117;DHT22;29781;49.480;8.512;2022-12-07T17:31:05;6.00;99.90
44117;DHT22;29781;49.480;8.512;2022-12-07T17:33:31;5.90;99.90
44117;DHT22;29781;49.480;8.512;2022-12-07T17:35:57;5.90;99.90
44117;DHT22;29781;49.480;8.512;2022-12-07T17:38:22;5.90;99.90
44117;DHT22;29781;49.480;8.512;2022-12-07T17:40:48;5.90;99.90
44117;DHT22;29781;49.480;8.512;2022-12-07T17:43:13;5.90;99.90
44117;DHT22;29781;49.480;8.512;2022-12-07T17:45:39;5.80;99.90